Bear Lake, Canada
Current Conditions -  °F | °C
As of 6:45 AM on Thursday 23 Oct 2014 (Local Time) from CYYD Reporting Station
Light Rain Light Rain  
Wind Chill: 37°   Ceiling: 1200
Heat Index: 37°   Visibility: 9mi
Dew Point: 37°   Wind: 3mph
Humidity: 100%   Direction: 130°SE
Pressure: 29.49"   Gusts: NA
Location:  56.2°N, 126.85°W
Report Text: CYYD 231345Z AUTO 13003KT 110V170 9SM -RA OVC012 03/03 A2949 RMK SLP997
Loading
Personal Weather Stations






























Interactive Weather Map
Tropical Storm Tracking
New forecast layout! Learn more

10-Day Weather Forecast

Advertisements
Track Severe Weather on mobile